Time;durP1;ratioP1;P1;durP2;ratioP2;P2;SDS_P1;SDS_P2;PMS_P1;PMS_P2;Temp;Humidity;BMP_temperature;BMP_pressure;BME280_temperature;BME280_humidity;BME280_pressure;Samples;Min_cycle;Max_cycle;Signal;HPM_P1;HPM_P2
2023/07/11 00:01:14;;;;;;;7.47;2.95;;;18.50;99.90;;;17.49;100.00;97922.47;5045884;28;20491;-78
2023/07/11 00:03:42;;;;;;;6.07;3.30;;;18.50;99.90;;;17.53;100.00;97916.91;5045485;28;20508;-78
2023/07/11 00:06:16;;;;;;;7.60;3.05;;;18.50;99.90;;;17.45;100.00;97921.00;5045117;28;20655;-79
2023/07/11 00:08:44;;;;;;;4.80;2.70;;;18.50;99.90;;;17.25;100.00;97925.75;5045308;28;20576;-78
2023/07/11 00:11:15;;;;;;;5.82;3.00;;;18.50;99.90;;;17.38;100.00;97924.94;5027944;28;20524;-78
2023/07/11 00:13:45;;;;;;;5.68;3.08;;;18.40;99.90;;;17.44;100.00;97917.53;5027182;28;20084;-78
2023/07/11 00:16:14;;;;;;;9.75;2.80;;;18.40;99.90;;;17.48;100.00;97921.63;5038962;28;20471;-78
2023/07/11 00:18:42;;;;;;;8.40;2.70;;;18.40;99.90;;;17.59;100.00;97917.47;5041674;28;20124;-79
2023/07/11 00:21:09;;;;;;;6.35;3.47;;;18.50;99.90;;;17.19;100.00;97920.06;5044514;28;20473;-78
2023/07/11 00:23:40;;;;;;;10.93;2.53;;;18.50;99.90;;;17.40;100.00;97920.44;5046683;28;20090;-78
2023/07/11 00:26:07;;;;;;;5.43;2.97;;;18.50;99.90;;;17.26;100.00;97923.97;5044111;28;20136;-78
2023/07/11 00:28:35;;;;;;;7.35;3.42;;;18.40;99.90;;;17.23;100.00;97925.00;5044459;28;20055;-78
2023/07/11 00:31:02;;;;;;;6.57;2.90;;;18.30;99.90;;;17.17;100.00;97935.03;5043613;28;20049;-79
2023/07/11 00:33:30;;;;;;;5.97;3.10;;;18.10;99.90;;;17.14;100.00;97929.06;5043597;28;20151;-78
2023/07/11 00:35:57;;;;;;;6.45;3.28;;;17.90;99.90;;;17.08;100.00;97931.22;5045448;28;20929;-77
2023/07/11 00:38:24;;;;;;;5.32;3.03;;;17.80;99.90;;;17.03;100.00;97925.44;5043488;28;20137;-78
2023/07/11 00:40:51;;;;;;;7.05;3.38;;;17.80;99.90;;;17.00;100.00;97926.47;5044741;28;20048;-78
2023/07/11 00:43:21;;;;;;;4.60;3.00;;;17.80;99.90;;;17.02;100.00;97924.59;5046101;28;20110;-79
2023/07/11 00:46:12;;;;;;;4.80;2.85;;;17.80;99.90;;;17.08;100.00;97925.97;5044761;28;20052;-79
2023/07/11 00:48:51;;;;;;;6.63;3.35;;;17.70;99.90;;;16.98;100.00;97917.84;5061546;28;20088;-78
2023/07/11 00:51:41;;;;;;;5.53;3.33;;;17.70;99.90;;;16.97;100.00;97926.69;5044769;28;20094;-78
2023/07/11 00:54:14;;;;;;;5.75;3.90;;;17.70;99.90;;;16.86;100.00;97922.09;5042671;28;20292;-78
2023/07/11 00:57:18;;;;;;;7.18;3.65;;;17.70;99.90;;;16.86;100.00;97929.97;5046590;28;20083;-78
2023/07/11 00:59:46;;;;;;;11.35;3.67;;;17.70;99.90;;;16.79;100.00;97925.19;5047858;28;20049;-79
2023/07/11 01:02:22;;;;;;;8.25;4.03;;;17.70;99.90;;;16.78;100.00;97928.72;5046578;28;20133;-78
2023/07/11 01:04:49;;;;;;;7.60;3.33;;;17.50;99.90;;;16.68;100.00;97936.31;5060309;28;20104;-78
2023/07/11 01:07:27;;;;;;;6.38;3.30;;;17.40;99.90;;;16.66;100.00;97932.94;5028752;28;20562;-78
2023/07/11 01:10:25;;;;;;;8.40;3.53;;;17.30;99.90;;;16.52;100.00;97931.16;5046923;28;20124;-78
2023/07/11 01:13:00;;;;;;;7.03;3.58;;;17.30;99.90;;;16.43;100.00;97929.09;5046643;28;20053;-78
2023/07/11 01:15:27;;;;;;;7.45;3.83;;;17.20;99.90;;;16.45;100.00;97925.47;5034437;28;20079;-78
2023/07/11 01:17:55;;;;;;;9.45;3.92;;;17.20;99.90;;;16.41;100.00;97917.88;5046538;28;20053;-78
2023/07/11 01:20:25;;;;;;;6.85;3.67;;;17.10;99.90;;;16.45;100.00;97920.22;5047202;28;20041;-78
2023/07/11 01:22:52;;;;;;;6.65;3.80;;;17.10;99.90;;;16.34;100.00;97919.19;5033173;28;20041;-78
2023/07/11 01:25:19;;;;;;;6.10;4.03;;;17.00;99.90;;;16.36;100.00;97919.94;5046834;28;20060;-78
2023/07/11 01:27:47;;;;;;;5.20;2.80;;;17.00;99.90;;;16.61;100.00;97906.19;5045250;28;21516;-78
2023/07/11 01:30:19;;;;;;;5.65;3.30;;;17.20;99.90;;;16.56;100.00;97901.22;5045784;28;20053;-78
2023/07/11 01:32:47;;;;;;;5.27;3.13;;;17.40;99.90;;;16.52;100.00;97903.19;5047386;28;20053;-78
2023/07/11 01:35:15;;;;;;;6.75;3.22;;;17.40;99.90;;;16.50;100.00;97902.44;5041777;28;20144;-78
2023/07/11 01:37:44;;;;;;;6.55;3.20;;;17.50;99.90;;;16.65;100.00;97899.78;5046932;28;20504;-78
2023/07/11 01:40:11;;;;;;;6.00;3.38;;;17.50;99.90;;;16.76;100.00;97889.47;5045973;28;20072;-78
2023/07/11 01:42:40;;;;;;;6.05;4.00;;;17.50;99.90;;;16.68;100.00;97886.50;5047686;28;20041;-78
2023/07/11 01:45:10;;;;;;;7.38;3.92;;;17.50;99.90;;;16.64;100.00;97883.22;5045964;28;20056;-78
2023/07/11 01:47:37;;;;;;;5.22;2.47;;;17.50;99.90;;;16.78;100.00;97879.75;5042227;28;20136;-78
2023/07/11 01:50:05;;;;;;;7.25;2.70;;;17.40;99.90;;;16.80;100.00;97877.06;5042988;28;20052;-78
2023/07/11 01:52:32;;;;;;;6.57;3.53;;;17.40;99.90;;;16.60;100.00;97875.66;5024782;28;20184;-78
2023/07/11 01:55:03;;;;;;;8.82;3.33;;;17.40;99.90;;;16.58;100.00;97874.91;5042753;28;20512;-78
2023/07/11 01:57:30;;;;;;;7.07;3.45;;;17.40;99.90;;;16.63;100.00;97880.72;5022303;28;20057;-78
2023/07/11 01:59:57;;;;;;;6.13;3.13;;;17.50;99.90;;;16.75;100.00;97874.69;5043519;28;20053;-78
2023/07/11 02:02:24;;;;;;;5.40;3.13;;;17.50;99.90;;;16.76;100.00;97868.50;5045930;28;20045;-78
2023/07/11 02:04:52;;;;;;;5.68;3.50;;;17.50;99.90;;;16.60;100.00;97868.63;5043013;28;20045;-78
2023/07/11 02:07:19;;;;;;;12.25;3.30;;;17.50;99.90;;;16.63;100.00;97873.69;5046515;28;20163;-78
2023/07/11 02:09:46;;;;;;;4.93;2.92;;;17.50;99.90;;;16.63;100.00;97876.31;5043920;28;20137;-78
2023/07/11 02:12:14;;;;;;;6.82;3.38;;;17.50;99.90;;;16.54;100.00;97866.41;5047039;28;20118;-78
2023/07/11 02:14:41;;;;;;;5.35;3.10;;;17.40;99.90;;;16.58;100.00;97869.66;5045664;28;20123;-78
2023/07/11 02:17:09;;;;;;;7.45;3.53;;;17.40;99.90;;;16.51;100.00;97867.44;5044719;28;20045;-78
2023/07/11 02:19:36;;;;;;;8.13;3.42;;;17.30;99.90;;;16.45;100.00;97856.50;5044341;28;20087;-78
2023/07/11 02:22:04;;;;;;;8.10;3.30;;;17.30;99.90;;;16.50;100.00;97860.50;5047383;28;20053;-78
2023/07/11 02:24:31;;;;;;;7.85;3.75;;;17.30;99.90;;;16.36;100.00;97860.53;5045356;28;20136;-78
2023/07/11 02:26:58;;;;;;;6.55;3.45;;;17.30;99.90;;;16.36;100.00;97854.44;5029634;28;20107;-78
2023/07/11 02:29:29;;;;;;;5.82;3.42;;;17.20;99.90;;;16.40;100.00;97858.53;5028376;28;20531;-78
2023/07/11 02:31:56;;;;;;;5.50;3.70;;;17.10;99.90;;;16.27;100.00;97850.63;5060862;28;20153;-78
2023/07/11 02:34:23;;;;;;;6.75;3.20;;;17.10;99.90;;;16.27;100.00;97848.00;5043340;28;20049;-78
2023/07/11 02:36:51;;;;;;;6.78;3.45;;;17.00;99.90;;;16.22;100.00;97848.28;5047258;28;20579;-78
2023/07/11 02:39:18;;;;;;;8.65;3.55;;;16.90;99.90;;;16.17;100.00;97852.09;5041868;28;20044;-78
2023/07/11 02:41:47;;;;;;;6.78;3.70;;;16.80;99.90;;;16.04;100.00;97852.84;5045157;28;20060;-78
2023/07/11 02:44:14;;;;;;;5.30;3.10;;;16.80;99.90;;;16.01;100.00;97850.44;5043396;28;20041;-78
2023/07/11 02:46:41;;;;;;;8.00;3.60;;;16.80;99.90;;;16.04;100.00;97852.84;5049805;28;20045;-78
2023/07/11 02:49:10;;;;;;;8.45;3.47;;;16.80;99.90;;;16.14;100.00;97852.28;5041641;28;20049;-78
2023/07/11 02:51:39;;;;;;;6.93;3.20;;;16.80;99.90;;;16.18;100.00;97845.94;5045222;28;20048;-78
2023/07/11 02:54:07;;;;;;;9.63;3.25;;;16.80;99.90;;;16.07;100.00;97843.97;5044201;28;20158;-77
2023/07/11 02:56:35;;;;;;;7.65;5.03;;;16.80;99.90;;;16.09;100.00;97847.34;5045382;28;20041;-78
2023/07/11 02:59:03;;;;;;;6.70;2.97;;;16.80;99.90;;;16.02;100.00;97853.88;5039346;28;20073;-78
2023/07/11 03:01:32;;;;;;;6.93;3.33;;;16.70;99.90;;;16.07;100.00;97852.66;5042969;28;20947;-78
2023/07/11 03:04:00;;;;;;;9.07;3.90;;;16.80;99.90;;;15.83;100.00;97851.53;5045385;28;20129;-77
2023/07/11 03:06:27;;;;;;;6.03;3.60;;;16.80;99.90;;;15.95;100.00;97847.34;5044617;28;20509;-78
2023/07/11 03:08:55;;;;;;;6.53;3.15;;;16.70;99.90;;;15.97;100.00;97851.53;5044428;28;20171;-78
2023/07/11 03:11:22;;;;;;;6.28;3.70;;;16.70;99.90;;;15.89;100.00;97844.13;5044666;28;20153;-78
2023/07/11 03:13:49;;;;;;;4.80;2.70;;;16.70;99.90;;;15.94;100.00;97846.47;5045420;28;20041;-78
2023/07/11 03:16:16;;;;;;;6.05;3.65;;;16.60;99.90;;;15.89;100.00;97833.66;5041942;28;20496;-78
2023/07/11 03:18:44;;;;;;;7.15;3.45;;;16.60;99.90;;;15.89;100.00;97835.44;5044205;28;20073;-78
2023/07/11 03:21:10;;;;;;;4.90;3.08;;;16.60;99.90;;;15.77;100.00;97844.03;5026684;28;20128;-78
2023/07/11 03:23:37;;;;;;;6.40;3.55;;;16.60;99.90;;;15.74;100.00;97836.38;5041951;28;20045;-78
2023/07/11 03:26:05;;;;;;;6.60;3.65;;;16.50;99.90;;;15.70;100.00;97835.69;5038310;28;20378;-78
2023/07/11 03:28:32;;;;;;;7.30;3.55;;;16.50;99.90;;;15.63;100.00;97835.19;5047026;28;20049;-78
2023/07/11 03:31:00;;;;;;;5.55;3.50;;;16.60;99.90;;;15.73;100.00;97837.28;5046725;28;20152;-78
2023/07/11 03:33:27;;;;;;;9.02;3.83;;;16.60;99.90;;;15.75;100.00;97838.03;5027137;28;20041;-78
2023/07/11 03:35:53;;;;;;;7.68;3.97;;;16.60;99.90;;;15.69;100.00;97836.59;5040082;28;20128;-78
2023/07/11 03:38:21;;;;;;;5.40;3.25;;;16.60;99.90;;;15.80;100.00;97831.59;5045903;28;20091;-77
2023/07/11 03:40:48;;;;;;;7.03;3.78;;;16.70;99.90;;;15.81;100.00;97830.69;5042412;28;20085;-78
2023/07/11 03:43:15;;;;;;;6.25;3.33;;;16.70;99.90;;;15.86;100.00;97833.84;5029033;28;20095;-78
2023/07/11 03:45:46;;;;;;;4.70;2.78;;;16.80;99.90;;;15.95;100.00;97832.47;5031530;28;20491;-78
2023/07/11 03:48:31;;;;;;;11.60;3.20;;;16.80;99.90;;;15.92;100.00;97835.28;5048049;28;20053;-78
2023/07/11 03:50:59;;;;;;;9.60;3.28;;;16.80;99.90;;;15.86;100.00;97823.38;5046620;28;20045;-78
2023/07/11 03:53:26;;;;;;;5.28;3.47;;;16.80;99.90;;;15.90;100.00;97829.28;5045254;28;20053;-78
2023/07/11 03:55:53;;;;;;;7.32;3.40;;;16.80;99.90;;;15.94;100.00;97819.44;5042485;28;20152;-78
2023/07/11 03:58:20;;;;;;;6.10;3.30;;;16.80;99.90;;;15.88;100.00;97829.38;5047552;28;20102;-78
2023/07/11 04:00:47;;;;;;;6.63;3.50;;;16.90;99.90;;;15.93;100.00;97825.63;5049063;28;20049;-78
2023/07/11 04:03:14;;;;;;;6.13;3.13;;;16.90;99.90;;;15.95;100.00;97826.41;5043554;28;20055;-78
2023/07/11 04:05:42;;;;;;;6.88;3.63;;;16.90;99.90;;;15.73;100.00;97818.97;5049685;28;20075;-78
2023/07/11 04:08:09;;;;;;;4.80;2.80;;;16.80;99.90;;;15.66;100.00;97834.16;5048539;28;20103;-78
2023/07/11 04:10:37;;;;;;;5.30;3.28;;;16.80;99.90;;;15.71;100.00;97837.38;5048928;28;20060;-78
2023/07/11 04:13:04;;;;;;;5.78;3.33;;;16.80;99.90;;;15.70;100.00;97827.81;5047379;28;20050;-78
2023/07/11 04:15:32;;;;;;;6.78;4.07;;;16.70;99.90;;;15.68;100.00;97837.53;5047559;28;20128;-78
2023/07/11 04:17:59;;;;;;;8.15;3.42;;;16.70;99.90;;;15.87;100.00;97832.06;5029309;28;20038;-78
2023/07/11 04:20:26;;;;;;;6.68;3.17;;;16.70;99.90;;;15.88;100.00;97832.00;5059290;28;20418;-79
2023/07/11 04:22:53;;;;;;;4.75;3.13;;;16.80;99.90;;;16.18;100.00;97830.22;5031318;28;20138;-78
2023/07/11 04:25:20;;;;;;;7.72;3.17;;;16.90;99.90;;;16.17;100.00;97826.78;5031808;28;20076;-78
2023/07/11 04:27:47;;;;;;;7.25;3.92;;;17.00;99.90;;;16.01;100.00;97821.63;5049392;28;20477;-78
2023/07/11 04:30:14;;;;;;;6.80;3.33;;;17.10;99.90;;;16.29;100.00;97818.16;5031513;28;20049;-77
2023/07/11 04:32:41;;;;;;;6.47;4.00;;;17.10;99.90;;;16.35;100.00;97811.66;5042392;28;20508;-78
2023/07/11 04:35:18;;;;;;;6.32;3.47;;;17.10;99.90;;;16.53;100.00;97809.69;5044079;28;20064;-78
2023/07/11 04:37:49;;;;;;;5.32;2.92;;;17.20;99.90;;;16.61;100.00;97804.81;5047600;28;20048;-78
2023/07/11 04:40:17;;;;;;;5.38;3.17;;;17.30;99.90;;;16.77;100.00;97806.47;5046168;28;20048;-78
2023/07/11 04:42:44;;;;;;;5.55;3.42;;;17.40;99.90;;;16.85;100.00;97804.19;5043411;28;20134;-78
2023/07/11 04:45:12;;;;;;;4.45;3.05;;;17.50;99.90;;;16.89;100.00;97808.31;5046335;28;20059;-78
2023/07/11 04:47:39;;;;;;;5.20;3.15;;;17.50;99.90;;;17.13;100.00;97798.84;5046029;28;20505;-78
2023/07/11 04:50:07;;;;;;;5.20;3.13;;;17.70;99.90;;;17.31;100.00;97773.19;5045821;28;20057;-78
2023/07/11 04:52:34;;;;;;;6.28;3.85;;;17.80;99.90;;;17.27;100.00;97779.59;5045500;28;21096;-78
2023/07/11 04:55:02;;;;;;;5.80;3.80;;;17.90;99.90;;;17.04;100.00;97788.13;5046691;28;20086;-78
2023/07/11 04:57:29;;;;;;;6.28;4.15;;;18.00;99.90;;;17.19;100.00;97781.84;5043127;28;20119;-78
2023/07/11 04:59:56;;;;;;;8.15;3.85;;;18.00;99.90;;;17.30;100.00;97778.53;5029370;28;20060;-78
2023/07/11 05:02:23;;;;;;;7.35;4.05;;;18.10;99.90;;;17.34;100.00;97782.63;5045335;28;20102;-78
2023/07/11 05:04:51;;;;;;;6.30;3.55;;;18.10;99.90;;;17.46;100.00;97778.34;5041492;28;20041;-78
2023/07/11 05:07:21;;;;;;;7.25;3.28;;;18.10;99.90;;;17.35;100.00;97781.69;5047805;28;20122;-78
2023/07/11 05:09:48;;;;;;;6.50;3.63;;;18.20;99.90;;;17.48;100.00;97779.09;5040709;28;20501;-78
2023/07/11 05:12:18;;;;;;;6.70;3.72;;;18.20;99.90;;;17.78;100.00;97774.34;5045459;28;20079;-78
2023/07/11 05:14:45;;;;;;;6.35;3.08;;;18.30;99.90;;;18.03;100.00;97775.31;5043693;28;20102;-79
2023/07/11 05:17:12;;;;;;;7.40;3.90;;;18.40;99.90;;;17.96;100.00;97769.66;5044557;28;20041;-79
2023/07/11 05:19:39;;;;;;;5.78;3.78;;;18.50;99.90;;;18.11;100.00;97770.38;5046493;28;20468;-79
2023/07/11 05:22:07;;;;;;;5.65;3.53;;;18.60;99.90;;;18.16;100.00;97777.94;5015229;28;20098;-79
2023/07/11 05:24:34;;;;;;;6.95;3.92;;;18.70;99.90;;;18.17;100.00;97780.44;5045081;28;20084;-79
2023/07/11 05:27:03;;;;;;;7.15;3.65;;;18.80;99.90;;;18.14;100.00;97770.16;5046063;28;20141;-79
2023/07/11 05:29:30;;;;;;;7.22;4.22;;;18.90;99.90;;;18.26;100.00;97768.44;5028444;28;20579;-79
2023/07/11 05:31:57;;;;;;;7.78;3.65;;;18.90;99.90;;;18.37;100.00;97763.28;5048023;28;20152;-79
2023/07/11 05:34:24;;;;;;;7.32;3.88;;;19.00;99.90;;;18.56;100.00;97752.28;5059332;28;20068;-79
2023/07/11 05:36:52;;;;;;;7.93;3.38;;;19.10;99.90;;;18.94;100.00;97739.94;5047133;28;20190;-79
2023/07/11 05:39:19;;;;;;;6.28;3.55;;;19.30;99.90;;;19.43;100.00;97725.72;5043883;28;20114;-79
2023/07/11 05:41:49;;;;;;;5.10;3.38;;;19.50;99.90;;;19.52;100.00;97719.75;5046784;28;20091;-79
2023/07/11 05:44:17;;;;;;;4.93;3.38;;;19.70;99.90;;;19.85;100.00;97710.25;5024287;28;20065;-79
2023/07/11 05:46:45;;;;;;;5.90;3.70;;;19.90;99.90;;;19.78;100.00;97704.63;5045225;28;20057;-79
2023/07/11 05:49:14;;;;;;;7.25;3.80;;;20.00;99.90;;;19.56;100.00;97704.56;5031348;28;20125;-79
2023/07/11 05:51:42;;;;;;;4.75;3.42;;;20.10;99.90;;;19.62;100.00;97697.03;5046339;28;20045;-79
2023/07/11 05:54:09;;;;;;;6.68;4.10;;;20.00;99.90;;;19.47;100.00;97695.56;5044789;28;20122;-79
2023/07/11 05:56:36;;;;;;;6.93;3.90;;;20.00;99.90;;;19.60;100.00;97691.03;5043314;28;20045;-79
2023/07/11 05:59:04;;;;;;;6.28;4.00;;;20.10;99.90;;;19.91;100.00;97695.72;5045102;28;20049;-79
2023/07/11 06:01:32;;;;;;;5.78;3.63;;;20.20;99.90;;;20.13;100.00;97690.44;5044305;28;20061;-79
2023/07/11 06:04:09;;;;;;;5.07;2.97;;;20.50;99.90;;;20.63;100.00;97687.34;5047544;28;20116;-79
2023/07/11 06:06:42;;;;;;;4.95;3.15;;;20.70;99.90;;;20.87;100.00;97668.69;5043089;28;20052;-79
2023/07/11 06:09:18;;;;;;;4.03;2.53;;;20.90;99.90;;;21.08;100.00;97666.03;5043980;28;20048;-79
2023/07/11 06:11:48;;;;;;;5.32;2.92;;;21.10;99.90;;;21.20;100.00;97662.34;5030005;28;20160;-79
2023/07/11 06:14:18;;;;;;;5.22;3.60;;;21.30;99.90;;;21.10;100.00;97661.47;5028966;28;20045;-79
2023/07/11 06:16:45;;;;;;;5.93;3.50;;;21.40;99.90;;;21.23;100.00;97655.97;5040957;28;20052;-79
2023/07/11 06:19:17;;;;;;;5.45;2.80;;;21.50;99.90;;;21.41;100.00;97661.53;5038692;28;20048;-78
2023/07/11 06:21:44;;;;;;;7.07;3.28;;;21.60;99.90;;;21.56;100.00;97651.47;5045296;28;20041;-79
2023/07/11 06:24:12;;;;;;;5.10;3.50;;;21.80;99.90;;;21.64;100.00;97655.09;5046252;28;20055;-79
2023/07/11 06:26:41;;;;;;;5.13;3.03;;;21.90;99.90;;;22.00;100.00;97647.56;5045324;28;20049;-79
2023/07/11 06:29:08;;;;;;;5.07;2.60;;;22.10;99.90;;;22.18;100.00;97650.41;5044860;28;20052;-78
2023/07/11 06:31:36;;;;;;;5.45;3.38;;;22.30;99.90;;;22.22;100.00;97651.00;5034003;28;20137;-76
2023/07/11 06:34:03;;;;;;;6.82;2.72;;;22.30;99.90;;;22.48;100.00;97654.78;5046753;28;20052;-78
2023/07/11 06:36:30;;;;;;;5.07;3.25;;;22.50;99.90;;;22.72;100.00;97646.44;5046554;28;20140;-78
2023/07/11 06:38:57;;;;;;;4.30;2.78;;;22.70;99.90;;;23.04;100.00;97647.16;5048111;28;20132;-79
2023/07/11 06:41:28;;;;;;;4.68;2.90;;;23.00;99.90;;;23.46;100.00;97646.75;5031129;28;20041;-78
2023/07/11 06:43:56;;;;;;;4.63;2.53;;;23.30;99.90;;;23.89;100.00;97648.81;5044395;28;20073;-78
2023/07/11 06:46:24;;;;;;;9.48;2.85;;;23.60;99.90;;;23.82;100.00;97639.78;5043732;28;20049;-79
2023/07/11 06:48:54;;;;;;;4.60;2.95;;;23.90;99.90;;;23.96;100.00;97636.63;5045101;28;20139;-78
2023/07/11 06:51:22;;;;;;;6.35;2.78;;;24.10;99.90;;;24.43;100.00;97639.13;5044790;28;20053;-77
2023/07/11 06:53:49;;;;;;;5.60;2.78;;;24.30;99.90;;;24.52;100.00;97640.09;5044744;28;20056;-78
2023/07/11 06:56:16;;;;;;;4.60;2.72;;;24.50;99.90;;;24.90;100.00;97630.09;5041885;28;20037;-76
2023/07/11 06:58:44;;;;;;;3.58;2.40;;;24.80;99.90;;;24.96;100.00;97628.66;5028786;28;20037;-79
2023/07/11 07:01:12;;;;;;;4.22;2.53;;;24.90;99.90;;;25.09;100.00;97623.78;5036891;28;20045;-79
2023/07/11 07:04:00;;;;;;;5.13;2.60;;;25.10;99.90;;;25.30;100.00;97617.31;5047108;28;20052;-78
2023/07/11 07:06:29;;;;;;;4.45;3.08;;;25.30;99.90;;;25.51;100.00;97617.75;5028491;28;20406;-76
2023/07/11 07:08:56;;;;;;;4.10;2.70;;;25.40;99.90;;;25.50;100.00;97618.75;5042161;28;20486;-76
2023/07/11 07:11:23;;;;;;;5.57;2.30;;;25.40;99.90;;;25.51;100.00;97612.44;5035990;28;20083;-78
2023/07/11 07:13:51;;;;;;;4.88;2.50;;;25.50;99.90;;;25.53;100.00;97612.28;5045096;28;20524;-76
2023/07/11 07:16:33;;;;;;;4.65;2.58;;;25.60;99.90;;;25.78;100.00;97607.91;5045271;28;20056;-76
2023/07/11 07:19:02;;;;;;;3.95;2.80;;;25.50;99.90;;;25.59;100.00;97609.81;5043383;28;20557;-76
2023/07/11 07:21:29;;;;;;;7.80;2.55;;;25.60;99.90;;;25.23;100.00;97601.97;5048195;28;20132;-77
2023/07/11 07:23:57;;;;;;;6.90;2.65;;;25.60;99.90;;;25.35;100.00;97604.38;5047007;28;20088;-79
2023/07/11 07:26:25;;;;;;;4.53;2.30;;;25.70;99.90;;;26.07;100.00;97596.88;5046521;28;20080;-76
2023/07/11 07:28:52;;;;;;;4.10;2.58;;;26.00;99.90;;;26.21;100.00;97592.75;5047213;28;20053;-76
2023/07/11 07:31:19;;;;;;;5.38;2.70;;;26.30;99.90;;;26.46;100.00;97585.63;5024726;28;20052;-76
2023/07/11 07:33:46;;;;;;;4.68;2.72;;;26.60;99.90;;;26.20;100.00;97591.06;5027487;28;20590;-76
2023/07/11 07:36:13;;;;;;;4.88;2.45;;;26.60;99.60;;;26.75;100.00;97585.16;5029806;28;20076;-76
2023/07/11 07:38:41;;;;;;;7.22;2.13;;;26.70;99.90;;;26.82;100.00;97582.66;5028259;28;20099;-76
2023/07/11 07:41:11;;;;;;;3.92;2.33;;;27.00;99.80;;;27.20;100.00;97581.13;5044770;28;20180;-76
2023/07/11 07:43:42;;;;;;;6.15;2.85;;;27.20;99.90;;;27.38;100.00;97580.91;5044339;28;20550;-77
2023/07/11 07:46:16;;;;;;;3.97;2.30;;;27.40;99.30;;;27.15;100.00;97574.63;5048629;28;20099;-77
2023/07/11 07:48:44;;;;;;;4.28;2.50;;;27.50;98.20;;;27.05;100.00;97574.78;5044151;28;20041;-77
2023/07/11 07:51:17;;;;;;;3.85;2.42;;;27.50;99.20;;;27.30;100.00;97578.25;5043226;28;20506;-77
2023/07/11 07:53:46;;;;;;;5.68;2.83;;;27.50;99.70;;;27.69;100.00;97570.28;5046252;28;20041;-77
2023/07/11 07:56:22;;;;;;;3.85;2.40;;;27.70;99.00;;;27.94;100.00;97568.34;5044594;28;20073;-76
2023/07/11 07:58:50;;;;;;;5.93;2.63;;;27.90;99.60;;;28.03;100.00;97565.63;5045555;28;20579;-77
2023/07/11 08:01:20;;;;;;;5.50;2.80;;;28.10;99.00;;;28.16;100.00;97571.22;5046238;28;20464;-77
2023/07/11 08:03:48;;;;;;;6.43;3.13;;;28.30;98.90;;;27.56;100.00;97564.69;5044583;28;20072;-77
2023/07/11 08:06:17;;;;;;;6.57;2.60;;;28.20;98.00;;;27.39;100.00;97571.91;5028063;28;20045;-77
2023/07/11 08:08:46;;;;;;;4.88;2.72;;;28.00;98.00;;;27.67;100.00;97571.47;5044422;28;20119;-78
2023/07/11 08:11:15;;;;;;;4.95;2.70;;;28.00;98.40;;;27.93;100.00;97566.69;5043553;28;20591;-77
2023/07/11 08:13:43;;;;;;;9.35;2.60;;;28.20;99.20;;;28.30;100.00;97565.09;5046181;28;20135;-77
2023/07/11 08:16:14;;;;;;;5.72;2.80;;;28.40;99.10;;;28.20;100.00;97556.53;5050150;28;20588;-77
2023/07/11 08:18:57;;;;;;;5.22;2.60;;;28.50;98.60;;;28.15;100.00;97562.38;5030961;28;20046;-78
2023/07/11 08:21:25;;;;;;;14.73;3.28;;;28.50;99.00;;;28.12;100.00;97554.75;5013021;28;20040;-78
2023/07/11 08:23:52;;;;;;;5.78;3.15;;;28.60;98.20;;;27.48;100.00;97557.56;5024855;28;20047;-78
2023/07/11 08:26:22;;;;;;;5.07;3.17;;;28.00;97.60;;;27.42;100.00;97554.75;5044291;28;20053;-78
2023/07/11 08:28:54;;;;;;;8.27;2.58;;;27.80;97.80;;;27.60;100.00;97554.47;5046358;28;20057;-78
2023/07/11 08:31:22;;;;;;;3.72;2.63;;;27.90;98.50;;;27.93;100.00;97553.34;5048123;28;20527;-78
2023/07/11 08:33:49;;;;;;;5.82;2.50;;;28.20;99.00;;;28.15;100.00;97549.03;5047632;28;20563;-77
2023/07/11 08:36:16;;;;;;;8.13;2.90;;;28.20;97.70;;;28.10;100.00;97546.09;5047855;28;20106;-78
2023/07/11 08:38:45;;;;;;;6.78;2.78;;;28.00;98.20;;;27.99;100.00;97548.34;5044038;28;20082;-78
2023/07/11 08:41:40;;;;;;;7.30;2.90;;;28.00;98.70;;;28.49;100.00;97547.81;5027691;28;20045;-77
2023/07/11 08:44:26;;;;;;;5.93;3.28;;;28.30;98.80;;;28.26;100.00;97553.16;5043835;28;20046;-78
2023/07/11 08:47:15;;;;;;;6.68;2.97;;;28.10;98.20;;;28.82;100.00;97536.84;5027419;28;20533;-78
2023/07/11 08:49:59;;;;;;;12.65;3.40;;;28.10;97.80;;;28.88;100.00;97528.09;5045566;28;20561;-78
2023/07/11 08:52:29;;;;;;;5.50;3.00;;;28.40;98.40;;;29.57;100.00;97543.06;5030945;28;20059;-77
2023/07/11 08:55:22;;;;;;;6.90;3.58;;;28.60;97.80;;;29.01;100.00;97532.78;5021238;28;20614;-78
2023/07/11 08:58:12;;;;;;;6.93;3.03;;;28.60;97.90;;;29.43;100.00;97527.88;5039726;28;20057;-77
2023/07/11 09:00:41;;;;;;;10.57;3.15;;;28.70;97.80;;;29.56;100.00;97525.34;5043576;28;20048;-77
2023/07/11 09:03:34;;;;;;;6.53;3.28;;;28.80;97.80;;;29.80;100.00;97524.22;5043081;28;20749;-78
2023/07/11 09:06:09;;;;;;;4.70;2.92;;;29.10;97.70;;;30.03;100.00;97524.88;5044367;28;20064;-78
2023/07/11 09:08:43;;;;;;;5.22;2.58;;;29.60;98.00;;;30.80;100.00;97512.59;5045569;28;20053;-77
2023/07/11 09:11:34;;;;;;;5.93;2.90;;;30.60;97.80;;;31.13;100.00;97522.72;5043038;28;20067;-78
2023/07/11 09:14:07;;;;;;;5.65;3.22;;;31.40;96.80;;;31.34;100.00;97521.81;5044125;28;20150;-77
2023/07/11 09:16:37;;;;;;;5.90;2.70;;;31.20;95.30;;;31.04;100.00;97507.81;5039954;28;20507;-78
2023/07/11 09:19:22;;;;;;;6.35;3.22;;;31.00;96.50;;;31.21;100.00;97511.03;5060191;28;20046;-78
2023/07/11 09:22:17;;;;;;;9.20;2.97;;;31.20;96.50;;;31.53;100.00;97514.91;5058801;28;20111;-77
2023/07/11 09:25:07;;;;;;;11.75;3.83;;;31.10;96.50;;;30.11;100.00;97515.09;5046173;28;20555;-78
2023/07/11 09:27:59;;;;;;;7.82;3.15;;;31.10;97.10;;;30.22;100.00;97506.50;5029702;28;20505;-78
2023/07/11 09:30:45;;;;;;;4.38;3.08;;;30.70;97.10;;;30.73;100.00;97506.38;5043889;28;20143;-78
2023/07/11 09:33:23;;;;;;;6.05;3.70;;;31.10;97.40;;;30.90;100.00;97501.56;5043517;28;20042;-78
2023/07/11 09:35:52;;;;;;;6.63;3.05;;;31.20;97.30;;;31.25;100.00;97505.06;5045090;28;20053;-77
2023/07/11 09:39:04;;;;;;;10.77;4.13;;;31.60;98.10;;;30.91;100.00;97502.41;5045016;28;20559;-78
2023/07/11 09:41:53;;;;;;;7.78;3.83;;;32.10;96.60;;;31.29;100.00;97497.44;5040611;28;20128;-78
2023/07/11 09:44:21;;;;;;;6.25;3.20;;;31.80;97.20;;;31.45;100.00;97489.09;5040843;28;20122;-77
2023/07/11 09:46:48;;;;;;;7.80;3.63;;;32.40;97.50;;;30.73;100.00;97501.00;5024336;28;20087;-77
2023/07/11 09:49:29;;;;;;;6.35;3.78;;;32.70;96.60;;;30.93;100.00;97489.59;5040472;28;20586;-78
2023/07/11 09:52:00;;;;;;;9.02;3.47;;;32.10;96.80;;;31.45;100.00;97485.56;5028648;28;20049;-77
2023/07/11 09:54:44;;;;;;;5.13;3.38;;;31.90;97.20;;;31.75;100.00;97483.41;5042185;28;20049;-77
2023/07/11 09:57:25;;;;;;;12.27;3.75;;;32.20;97.20;;;31.50;100.00;97493.00;5058569;28;20136;-77
2023/07/11 10:00:00;;;;;;;6.15;3.63;;;32.10;96.80;;;31.54;100.00;97488.91;5042120;28;20049;-77
2023/07/11 10:02:49;;;;;;;6.70;3.42;;;31.80;97.10;;;32.17;100.00;97478.75;5041127;28;20693;-77
2023/07/11 10:05:18;;;;;;;6.78;3.30;;;32.30;96.60;;;32.23;100.00;97474.44;5044887;28;20127;-77
2023/07/11 10:07:47;;;;;;;6.05;3.42;;;32.40;96.20;;;32.24;100.00;97476.91;5044353;28;20094;-76
2023/07/11 10:10:15;;;;;;;8.43;3.35;;;32.20;95.70;;;32.73;100.00;97474.88;5038377;28;20076;-76
2023/07/11 10:12:45;;;;;;;6.57;3.30;;;32.10;96.30;;;31.52;100.00;97473.03;5040345;28;20052;-76
2023/07/11 10:15:18;;;;;;;5.50;3.13;;;32.60;96.00;;;33.34;100.00;97463.72;5038337;28;20053;-76
2023/07/11 10:17:45;;;;;;;9.25;3.20;;;33.50;95.70;;;33.03;100.00;97456.38;5041914;28;20136;-75
2023/07/11 10:20:17;;;;;;;9.10;3.97;;;33.60;94.70;;;32.53;100.00;97469.50;5042245;28;20051;-76
2023/07/11 10:22:53;;;;;;;4.18;2.88;;;33.70;93.30;;;32.46;100.00;97456.03;5040834;28;20527;-76
2023/07/11 10:25:26;;;;;;;8.23;2.72;;;32.50;93.60;;;33.27;100.00;97459.44;5037865;28;20041;-74
2023/07/11 10:28:08;;;;;;;5.40;3.13;;;32.50;94.40;;;34.02;100.00;97448.91;5037964;28;20061;-75